首页
METAR-TAF:

METAR-TAF

机场 :

Wilbarger County Airport

Vernon, 得克萨斯州, 美国

纬度: 34-13-32N, 经度: 099-17-01W, 海拔: 386米

当前天气观测

该预报发布于23分钟前的22:35 UTC
风速12节,风向,有时为18节阵风
温度 32°C
湿度 29%
气压 1009 hPa
能見度: 16.1公里
天空无云

METAR: KF05 172235Z AUTO 18012G18KT 10SM CLR 32/12 A2980 RMK AO2 T03220116

时间: 17:58 (22:58 UTC)


TAF: 丢失

超过4000个机场的气象观测和天气预报(METAR&TAF报告)。

可查询的气象台以黄色和红色小点在地图上表示。

将鼠标移到小点上方,可查看气象台名称。

然后点击查看天气观测和预报。

如需切换地图:点击带黑十字的绿色按钮放大地图;点击带横线的绿色按钮缩小地图;或者点击绿色箭头查看邻近地区的地图。


METAR-TAF: